»·PEaware :: AAL475 KOAK-KLAX

AAL475 :: KOAK-KLAX

FLIGHT INFORMATION

Flight Status: Arrived
Operator:
American Airlines
More flights by this operator :: More flights under this callsign
Pilot: Ben F. (13029)
Aircraft: BOEING 737-800
(B738)
More flights by this aircraft type
Origin: KOAK Metro Oakland Intl
United States
Destination: KLAX Los Angeles Intl
United States
More flights between these airports :: More routes between these airports
Route: +CNDEL4 EBAYE BURGL IRNMN2
File this flight plan on PilotEdge
Remarks: RMK / SIMBRIEF
Altitude:
(Current/Filed)
35,000ft
Speed:
(Current/Filed)
438kts
Departed: 05-Jan-20 05:33 PM
Arrived: 05-Jan-20 06:35 PM
Distance/Time
Traveled:
293nm/1:01
Distance/Time
To Go:
Arrived

Flight Plot

Page will automatically refresh every two minutes.

Flight plan parsing failed; only flown route is shown


Map Options




Map Legend


Flown Route
Filed Route
Departure Airport
Arrival Airport
Navaid (VOR, NDB)
Fix

Horizontal Profiles

Position Reports

Time Latitude Longitude Heading Altitude Ground
Speed
05-Jan-20 17:05 37.710534 -122.215725 300 14ft 0kts
05-Jan-20 17:06 37.710534 -122.215725 300 14ft 0kts
05-Jan-20 17:07 37.710534 -122.215725 300 14ft 0kts
05-Jan-20 17:08 37.710534 -122.215725 300 14ft 0kts
05-Jan-20 17:09 37.710534 -122.215725 300 14ft 0kts
05-Jan-20 17:10 37.710534 -122.215725 300 14ft 0kts
05-Jan-20 17:11 37.710534 -122.215725 300 14ft 0kts
05-Jan-20 17:11 37.710534 -122.215725 300 14ft 0kts
05-Jan-20 17:13 37.710534 -122.215725 300 14ft 0kts
05-Jan-20 17:13 37.710534 -122.215725 300 14ft 0kts
05-Jan-20 17:14 37.710534 -122.215725 300 14ft 0kts
05-Jan-20 17:15 37.710534 -122.215725 300 14ft 0kts
05-Jan-20 17:16 37.710534 -122.215725 300 14ft 0kts
05-Jan-20 17:17 37.710534 -122.215725 300 14ft 0kts
05-Jan-20 17:18 37.710534 -122.215725 300 14ft 0kts
05-Jan-20 17:19 37.710534 -122.215725 300 14ft 0kts
05-Jan-20 17:20 37.710534 -122.215725 300 14ft 0kts
05-Jan-20 17:21 37.710534 -122.215725 300 14ft 0kts
05-Jan-20 17:22 37.710534 -122.215725 300 14ft 0kts
05-Jan-20 17:23 37.710512 -122.215677 300 14ft 2kts
05-Jan-20 17:24 37.710232 -122.215063 300 14ft 0kts
05-Jan-20 17:25 37.710338 -122.214636 211 14ft 0kts
05-Jan-20 17:26 37.710338 -122.214636 211 14ft 0kts
05-Jan-20 17:27 37.710338 -122.214636 211 14ft 0kts
05-Jan-20 17:28 37.709366 -122.215374 211 14ft 12kts
05-Jan-20 17:29 37.705165 -122.215973 131 14ft 24kts
05-Jan-20 17:30 37.702498 -122.213621 186 14ft 0kts
05-Jan-20 17:31 37.702498 -122.213621 186 14ft 0kts
05-Jan-20 17:32 37.703769 -122.217652 310 14ft 63kts
05-Jan-20 17:33 37.729188 -122.255489 304 1573ft 168kts
05-Jan-20 17:34 37.764778 -122.311178 309 1942ft 206kts
05-Jan-20 17:35 37.789957 -122.367915 255 2492ft 192kts
05-Jan-20 17:36 37.744059 -122.403883 197 5374ft 222kts
05-Jan-20 17:37 37.681777 -122.420610 199 8100ft 238kts
05-Jan-20 17:38 37.614724 -122.439543 199 10413ft 267kts
05-Jan-20 17:39 37.531773 -122.453808 178 12161ft 330kts
05-Jan-20 17:40 37.445367 -122.410416 140 14808ft 349kts
05-Jan-20 17:41 37.376793 -122.320706 131 17258ft 363kts
05-Jan-20 17:42 37.306901 -122.225828 132 18974ft 382kts
05-Jan-20 17:43 37.234300 -122.127663 132 20840ft 386kts
05-Jan-20 17:44 37.159785 -122.027142 132 22805ft 400kts
05-Jan-20 17:45 37.082955 -121.923887 133 24571ft 414kts
05-Jan-20 17:46 37.003521 -121.817424 136 26290ft 424kts
05-Jan-20 17:47 36.980261 -121.786329 137 26865ft 424kts
05-Jan-20 17:51 36.586611 -121.264332 141 33146ft 459kts
05-Jan-20 17:52 36.498888 -121.149087 142 34452ft 459kts
05-Jan-20 17:53 36.410436 -121.032314 140 34947ft 481kts
05-Jan-20 17:54 36.320558 -120.902383 140 34912ft 507kts
05-Jan-20 17:55 36.245669 -120.794984 140 34908ft 501kts
05-Jan-20 17:56 36.170585 -120.687828 140 34908ft 506kts
05-Jan-20 17:57 36.111178 -120.603073 141 34922ft 495kts
05-Jan-20 17:58 36.019281 -120.472640 140 34912ft 504kts
05-Jan-20 17:59 35.927266 -120.342572 141 34927ft 507kts
05-Jan-20 18:00 35.841286 -120.240605 157 35387ft 467kts
05-Jan-20 18:01 35.776215 -120.190378 160 35475ft 465kts
05-Jan-20 18:02 35.662789 -120.105261 159 35460ft 482kts
05-Jan-20 18:03 35.547845 -120.018649 159 35465ft 496kts
05-Jan-20 18:04 35.451134 -119.945786 159 35470ft 506kts
05-Jan-20 18:06 35.197377 -119.738642 152 35361ft 517kts
05-Jan-20 18:07 35.084607 -119.633362 152 33543ft 503kts
05-Jan-20 18:08 34.974419 -119.530965 151 30779ft 495kts
05-Jan-20 18:09 34.865409 -119.431392 150 28159ft 484kts
05-Jan-20 18:10 34.759036 -119.336448 149 25716ft 462kts
05-Jan-20 18:11 34.661738 -119.251291 149 24134ft 441kts
05-Jan-20 18:12 34.561897 -119.165067 148 22006ft 436kts
05-Jan-20 18:13 34.465300 -119.079504 146 19896ft 426kts
05-Jan-20 18:14 34.372396 -118.998604 146 17778ft 397kts
05-Jan-20 18:15 34.284834 -118.920511 144 16074ft 381kts
05-Jan-20 18:16 34.201943 -118.844648 144 14246ft 361kts
05-Jan-20 18:17 34.129977 -118.772855 138 12207ft 323kts
05-Jan-20 18:18 34.066024 -118.703089 138 10707ft 303kts
05-Jan-20 18:19 34.025710 -118.618866 96 9083ft 285kts
05-Jan-20 18:20 34.016402 -118.523151 93 7648ft 286kts
05-Jan-20 18:21 34.014068 -118.434909 75 6689ft 223kts
05-Jan-20 18:22 34.026640 -118.361459 75 6698ft 222kts
05-Jan-20 18:23 34.046043 -118.292313 73 6691ft 234kts
05-Jan-20 18:24 34.061535 -118.215995 78 5812ft 228kts
05-Jan-20 18:25 34.075932 -118.141594 78 4221ft 222kts
05-Jan-20 18:26 34.078475 -118.071167 128 3507ft 215kts
05-Jan-20 18:27 34.029262 -118.069776 228 3508ft 199kts
05-Jan-20 18:28 34.001298 -118.127705 241 3496ft 201kts
05-Jan-20 18:29 33.975295 -118.188631 241 3054ft 210kts
05-Jan-20 18:30 33.952883 -118.245494 253 2042ft 171kts
05-Jan-20 18:31 33.946255 -118.298199 260 1199ft 144kts
05-Jan-20 18:32 33.940980 -118.347255 262 778ft 150kts
05-Jan-20 18:33 33.936278 -118.393561 264 113ft 97kts
05-Jan-20 18:34 33.936161 -118.403393 288 113ft 0kts
05-Jan-20 18:35 33.937531 -118.404190 342 113ft 21kts
05-Jan-20 18:36 33.938279 -118.404797 280 113ft 8kts
05-Jan-20 18:37 33.940441 -118.406034 275 113ft 0kts
05-Jan-20 18:38 33.940465 -118.406178 282 113ft 0kts
05-Jan-20 18:39 33.940465 -118.406178 282 113ft 0kts
05-Jan-20 18:40 33.940465 -118.406178 282 113ft 0kts
05-Jan-20 18:41 33.940465 -118.406178 282 113ft 0kts
05-Jan-20 18:42 33.940465 -118.406178 282 113ft 0kts
05-Jan-20 18:43 33.940465 -118.406178 282 113ft 0kts

Navigation Log

Ident Type
Flight plan parsing failed, navigation log unavailable